Terminal Aerodrome Forecast
Issued by NWS

Home | Current Version | Previous Version | Text Only | Print | Product List | Glossary On
Versions: 1 2 3 4 5 6 7 8 9 10 11 12 13 14 15 16 17 18 19 20 21 22
000
FTUS43 KIND 170520
TAFBMG
TAF
KBMG 170520Z 1706/1806 18010KT 3SM SHRA OVC008 WS020/21050KT
     FM170700 19011KT 4SM SHRA OVC003 WS020/20050KT
     FM171000 22011G19KT 5SM BR VCSH OVC008
     FM171200 23010KT 5SM BR VCSH OVC015
     FM171800 25011KT P6SM BKN010
     FM172000 25010KT P6SM BKN008
     FM180300 27008KT P6SM OVC003
     FM180400 27008KT P6SM OVC008
      AMD LTD TO CLD VIS AND WIND TIL 171400=

USA.gov is the U.S. government's official web portal to all federal, state and local government web resources and services.